North Bay Village, Florida
Current Conditions -  °F | °C
As of 5:53 PM on Tuesday 25 Nov 2014 (Local Time) from KMIA Reporting Station
Broken Clouds Broken Clouds  
Wind Chill: 80°   Ceiling: 25000
Heat Index: 85°   Visibility: 10mi
Dew Point: 75°   Wind: 8mph
Humidity: 85%   Direction: 170°S
Pressure: 29.95"   Gusts: 17mph
Location:  25.8619°N, 80.1259°W
Report Text: KMIA 252253Z 17007G15KT 150V210 10SM SCT020 BKN250 27/24 A2995 RMK AO2 SLP140 T02670239 $
Loading
Personal Weather Stations






























Interactive Weather Map New forecast layout! Learn more

10-Day Weather Forecast

Advertisements
Track Severe Weather on mobile